Time;durP1;ratioP1;P1;durP2;ratioP2;P2;SDS_P1;SDS_P2;PMS_P1;PMS_P2;Temp;Humidity;BMP_temperature;BMP_pressure;BME280_temperature;BME280_humidity;BME280_pressure;Samples;Min_cycle;Max_cycle;Signal;HPM_P1;HPM_P2
2023/12/25 00:00:49;;;;;;;7.90;6.82;;;;;;;10.85;100.00;100509.16;6126000;23;20013;-85
2023/12/25 00:03:14;;;;;;;7.32;6.63;;;;;;;11.02;100.00;100541.59;6126009;23;20012;-83
2023/12/25 00:05:39;;;;;;;8.30;7.40;;;;;;;10.99;100.00;100523.69;6126161;23;20085;-85
2023/12/25 00:08:10;;;;;;;7.90;6.72;;;;;;;11.00;100.00;100540.03;6126452;23;20088;-82
2023/12/25 00:10:36;;;;;;;7.40;6.63;;;;;;;11.00;100.00;100542.63;6100776;23;20002;-83
2023/12/25 00:13:01;;;;;;;7.63;6.60;;;;;;;10.69;100.00;100489.66;6099241;23;20010;-84
2023/12/25 00:15:26;;;;;;;7.50;6.70;;;;;;;11.01;100.00;100544.25;6125725;23;20009;-83
2023/12/25 00:17:52;;;;;;;8.85;7.90;;;;;;;11.02;100.00;100540.78;6126438;23;20421;-84
2023/12/25 00:20:18;;;;;;;8.60;7.25;;;;;;;11.02;100.00;100535.59;6125625;23;20010;-82
2023/12/25 00:22:43;;;;;;;7.72;6.93;;;;;;;10.56;100.00;100456.94;6126060;23;20030;-82
2023/12/25 00:25:08;;;;;;;7.85;7.05;;;;;;;10.47;100.00;100439.50;6124542;23;20083;-84
2023/12/25 00:27:34;;;;;;;13.60;12.15;;;;;;;10.74;100.00;100479.84;6125720;23;20001;-83
2023/12/25 00:29:59;;;;;;;9.68;8.50;;;;;;;10.66;100.00;100479.56;6125840;23;20005;-84
2023/12/25 00:32:24;;;;;;;8.85;7.30;;;;;;;10.78;100.00;100497.59;6125540;23;20005;-82
2023/12/25 00:34:50;;;;;;;9.18;7.53;;;;;;;10.87;100.00;100520.22;6125911;23;20006;-82
2023/12/25 00:37:16;;;;;;;8.18;7.38;;;;;;;10.89;100.00;100523.50;6126044;23;20298;-82
2023/12/25 00:39:41;;;;;;;8.38;7.47;;;;;;;10.81;100.00;100506.88;6125510;23;20006;-82
2023/12/25 00:42:07;;;;;;;9.30;7.70;;;;;;;10.88;100.00;100516.69;6125857;23;20081;-82
2023/12/25 00:44:32;;;;;;;9.27;8.35;;;;;;;10.72;100.00;100492.06;6125666;23;20073;-84
2023/12/25 00:46:57;;;;;;;10.82;8.32;;;;;;;10.93;100.00;100534.47;6125501;23;20002;-83
2023/12/25 00:49:23;;;;;;;9.73;8.48;;;;;;;10.91;100.00;100524.25;6125820;23;20006;-82
2023/12/25 00:51:48;;;;;;;9.80;8.80;;;;;;;10.97;100.00;100535.09;6125742;23;20006;-81
2023/12/25 00:54:13;;;;;;;9.52;8.52;;;;;;;10.80;100.00;100505.25;6125812;23;20042;-83
2023/12/25 00:56:39;;;;;;;10.25;8.40;;;;;;;11.01;100.00;100539.09;6125929;23;20030;-82
2023/12/25 00:59:04;;;;;;;10.50;8.10;;;;;;;10.87;100.00;100516.81;6125517;23;20429;-81
2023/12/25 01:01:29;;;;;;;9.10;8.20;;;;;;;10.68;100.00;100475.91;6125684;23;20005;-84
2023/12/25 01:03:55;;;;;;;9.13;7.32;;;;;;;11.05;100.00;100546.53;6125834;23;20002;-84
2023/12/25 01:06:20;;;;;;;9.70;7.63;;;;;;;10.88;100.00;100527.03;6125488;23;20409;-86
2023/12/25 01:08:45;;;;;;;8.93;7.40;;;;;;;11.07;100.00;100555.00;6125971;23;20006;-86
2023/12/25 01:11:11;;;;;;;8.82;7.25;;;;;;;11.09;100.00;100553.13;6125620;23;20010;-87
2023/12/25 01:13:36;;;;;;;8.60;6.72;;;;;;;10.82;100.00;100493.88;6125436;23;20013;-89
2023/12/25 01:16:01;;;;;;;8.05;7.20;;;;;;;11.10;100.00;100534.09;6125474;23;20002;-86
2023/12/25 01:18:27;;;;;;;8.35;6.75;;;;;;;11.12;100.00;100545.19;6125876;23;20013;-89
2023/12/25 01:20:52;;;;;;;7.45;6.65;;;;;;;10.89;100.00;100505.44;6125705;23;20013;-83
2023/12/25 01:23:17;;;;;;;8.68;6.90;;;;;;;11.06;100.00;100539.63;6125855;23;20077;-87
2023/12/25 01:25:43;;;;;;;8.80;7.05;;;;;;;11.14;100.00;100550.25;6125901;23;20471;-84
2023/12/25 01:28:08;;;;;;;10.57;7.35;;;;;;;11.14;100.00;100555.41;6126958;23;20089;-83
2023/12/25 01:30:33;;;;;;;8.95;6.85;;;;;;;11.14;100.00;100555.41;6127408;23;20013;-84
2023/12/25 01:32:59;;;;;;;9.02;7.38;;;;;;;10.79;100.00;100503.59;6127847;23;20001;-85
2023/12/25 01:35:24;;;;;;;9.00;6.53;;;;;;;11.15;100.00;100567.41;6127683;23;20332;-83
2023/12/25 01:37:51;;;;;;;8.93;7.10;;;;;;;10.77;100.00;100502.88;6127457;23;20006;-82
2023/12/25 01:40:17;;;;;;;9.38;7.32;;;;;;;11.17;100.00;100576.69;6127277;23;20002;-82
2023/12/25 01:42:42;;;;;;;8.63;7.20;;;;;;;10.99;100.00;100535.78;6101109;23;20013;-87
2023/12/25 01:45:09;;;;;;;8.30;6.60;;;;;;;11.18;100.00;100570.59;6127640;23;20006;-82
2023/12/25 01:47:35;;;;;;;8.80;7.07;;;;;;;11.16;100.00;100563.88;6127188;23;20010;-87
2023/12/25 01:50:02;;;;;;;10.45;7.60;;;;;;;11.15;100.00;100557.91;6101100;23;20017;-86
2023/12/25 01:52:28;;;;;;;8.10;6.80;;;;;;;11.03;100.00;100545.00;6127375;23;20013;-87
2023/12/25 01:54:56;;;;;;;7.80;6.60;;;;;;;10.79;100.00;100504.41;6127378;23;20420;-87
2023/12/25 01:57:21;;;;;;;10.40;6.72;;;;;;;11.09;100.00;100547.97;6127114;23;20002;-87
2023/12/25 01:59:46;;;;;;;9.15;6.85;;;;;;;11.17;100.00;100571.53;6126802;23;20149;-88
2023/12/25 02:02:12;;;;;;;8.50;6.57;;;;;;;10.83;100.00;100510.22;6126863;23;20002;-84
2023/12/25 02:04:38;;;;;;;8.10;6.82;;;;;;;11.19;100.00;100571.41;6126938;23;20073;-87
2023/12/25 02:07:03;;;;;;;9.32;7.28;;;;;;;11.17;100.00;100568.94;6126947;23;20014;-88
2023/12/25 02:09:28;;;;;;;8.70;7.10;;;;;;;11.15;100.00;100575.16;6128035;23;20002;-86
2023/12/25 02:11:54;;;;;;;9.38;6.68;;;;;;;11.08;100.00;100564.41;6127604;23;20105;-85
2023/12/25 02:14:19;;;;;;;9.25;6.38;;;;;;;11.07;100.00;100564.53;6127123;23;20002;-89
2023/12/25 02:16:46;;;;;;;10.38;7.05;;;;;;;11.17;100.00;100591.38;6126782;23;20005;-89
2023/12/25 02:19:28;;;;;;;9.10;6.45;;;;;;;11.18;100.00;100586.09;6127390;23;20012;-87
2023/12/25 02:21:56;;;;;;;8.65;6.55;;;;;;;11.18;100.00;100590.44;6127401;23;20196;-86
2023/12/25 02:24:29;;;;;;;11.13;7.68;;;;;;;11.22;100.00;100583.31;6127181;23;20002;-86
2023/12/25 02:26:55;;;;;;;9.23;6.10;;;;;;;11.00;100.00;100543.44;6127461;23;20125;-85
2023/12/25 02:29:23;;;;;;;9.98;6.43;;;;;;;11.26;100.00;100585.56;6127356;23;20025;-87
2023/12/25 02:31:50;;;;;;;10.18;6.30;;;;;;;11.28;100.00;100598.38;6126884;23;20329;-88
2023/12/25 02:34:15;;;;;;;7.25;5.45;;;;;;;11.30;100.00;100612.03;6100852;23;20042;-84
2023/12/25 02:36:41;;;;;;;7.38;5.40;;;;;;;11.32;100.00;100605.00;6126826;23;20006;-89
2023/12/25 02:39:06;;;;;;;8.10;5.28;;;;;;;11.03;100.00;100552.75;6126094;23;20005;-85
2023/12/25 02:41:32;;;;;;;9.40;5.15;;;;;;;11.04;100.00;100547.47;6126874;23;20336;-86
2023/12/25 02:43:57;;;;;;;10.30;5.40;;;;;;;11.38;100.00;100610.56;6126682;23;20013;-85
2023/12/25 02:46:22;;;;;;;7.03;5.30;;;;;;;11.41;100.00;100612.13;6126310;23;20005;-85
2023/12/25 02:48:48;;;;;;;8.30;6.00;;;;;;;11.28;100.00;100591.47;6126754;23;20006;-89
2023/12/25 02:51:13;;;;;;;8.13;5.28;;;;;;;11.26;100.00;100569.25;6126702;23;20006;-87
2023/12/25 02:53:38;;;;;;;7.22;5.30;;;;;;;11.36;100.00;100596.91;6127714;23;20006;-88
2023/12/25 02:56:06;;;;;;;7.35;5.50;;;;;;;11.20;100.00;100576.47;6126817;23;20010;-85
2023/12/25 02:58:32;;;;;;;8.93;5.90;;;;;;;11.07;100.00;100557.59;6126531;23;20014;-88
2023/12/25 03:00:57;;;;;;;8.40;5.30;;;;;;;11.13;100.00;100569.28;6126691;23;20084;-88
2023/12/25 03:03:22;;;;;;;7.38;4.97;;;;;;;11.25;100.00;100583.09;6126615;23;20309;-85
2023/12/25 03:05:50;;;;;;;8.52;5.07;;;;;;;11.43;100.00;100610.25;6126943;23;20014;-88
2023/12/25 03:08:15;;;;;;;8.05;5.72;;;;;;;11.44;100.00;100606.72;6124684;23;20006;-90
2023/12/25 03:10:41;;;;;;;7.18;4.90;;;;;;;11.25;100.00;100573.59;6126946;23;20074;-87
2023/12/25 03:13:07;;;;;;;8.07;5.60;;;;;;;11.44;100.00;100601.56;6100242;23;20026;-87
2023/12/25 03:15:33;;;;;;;6.38;4.65;;;;;;;11.22;100.00;100570.41;6126609;23;20029;-83
2023/12/25 03:17:58;;;;;;;7.72;5.60;;;;;;;11.46;100.00;100604.88;6126246;23;20348;-87
2023/12/25 03:20:23;;;;;;;7.00;5.03;;;;;;;11.41;100.00;100599.19;6126564;23;20049;-88
2023/12/25 03:22:48;;;;;;;6.68;5.13;;;;;;;11.44;100.00;100610.16;6126206;23;20002;-88
2023/12/25 03:25:14;;;;;;;7.10;5.00;;;;;;;11.32;100.00;100584.34;6126380;23;20010;-85
2023/12/25 03:27:39;;;;;;;15.80;5.38;;;;;;;11.13;100.00;100551.19;6126329;23;20006;-87
2023/12/25 03:30:05;;;;;;;7.53;5.25;;;;;;;11.22;100.00;100578.97;6126792;23;20014;-85
2023/12/25 03:32:31;;;;;;;9.48;5.07;;;;;;;11.45;100.00;100618.72;6126179;23;20006;-86
2023/12/25 03:34:56;;;;;;;7.18;4.63;;;;;;;11.32;100.00;100584.34;6126363;23;20024;-86
2023/12/25 03:37:21;;;;;;;8.32;5.10;;;;;;;11.49;100.00;100626.16;6126052;23;20006;-89
2023/12/25 03:39:47;;;;;;;6.82;4.35;;;;;;;11.39;100.00;100607.03;6126265;23;20020;-88
2023/12/25 03:42:12;;;;;;;6.40;4.38;;;;;;;11.49;100.00;100617.56;6124326;23;20010;-86
2023/12/25 03:44:37;;;;;;;6.60;4.18;;;;;;;11.39;100.00;100619.97;6126555;23;20006;-81
2023/12/25 03:47:03;;;;;;;5.65;4.10;;;;;;;11.44;100.00;100624.84;6125908;23;20195;-81
2023/12/25 03:49:28;;;;;;;6.70;4.53;;;;;;;11.34;100.00;100613.47;6126053;23;20066;-83
2023/12/25 03:51:55;;;;;;;5.97;4.47;;;;;;;11.45;100.00;100626.47;6126226;23;20124;-83
2023/12/25 03:54:21;;;;;;;6.82;4.65;;;;;;;11.45;100.00;100629.91;6126116;23;20448;-80
2023/12/25 03:56:46;;;;;;;6.32;4.93;;;;;;;11.26;100.00;100597.66;6125992;23;20002;-87
2023/12/25 03:59:11;;;;;;;7.25;4.63;;;;;;;11.49;100.00;100643.44;6125800;23;20014;-83
2023/12/25 04:01:38;;;;;;;6.75;5.35;;;;;;;11.45;100.00;100642.81;6123732;23;20088;-82
2023/12/25 04:04:03;;;;;;;7.65;5.30;;;;;;;11.41;100.00;100627.66;6126129;23;20065;-84
2023/12/25 04:06:29;;;;;;;7.65;5.60;;;;;;;11.44;100.00;100624.84;6126403;23;20393;-85
2023/12/25 04:08:54;;;;;;;7.10;5.78;;;;;;;11.30;100.00;100602.50;6126258;23;20065;-81
2023/12/25 04:11:20;;;;;;;9.40;6.72;;;;;;;11.06;100.00;100573.22;6126160;23;20412;-86
2023/12/25 04:13:46;;;;;;;8.75;7.60;;;;;;;11.05;100.00;100582.72;6125841;23;20080;-86
2023/12/25 04:16:20;;;;;;;10.40;9.27;;;;;;;11.34;100.00;100635.00;6125820;23;20005;-83
2023/12/25 04:18:45;;;;;;;11.32;8.85;;;;;;;11.16;100.00;100613.81;6125521;23;20009;-81
2023/12/25 04:21:32;;;;;;;10.57;9.45;;;;;;;11.15;100.00;100608.75;6126023;23;20328;-81
2023/12/25 04:23:59;;;;;;;12.23;10.75;;;;;;;10.94;100.00;100584.38;6125708;23;20132;-82
2023/12/25 04:26:26;;;;;;;13.35;11.52;;;;;;;11.10;100.00;100618.56;6126183;23;20009;-85
2023/12/25 04:28:52;;;;;;;13.95;12.45;;;;;;;11.07;100.00;100623.94;6125596;23;20420;-89
2023/12/25 04:31:18;;;;;;;13.68;11.85;;;;;;;11.03;100.00;100609.59;6126124;23;20005;-82
2023/12/25 04:33:44;;;;;;;14.18;12.15;;;;;;;10.97;100.00;100612.59;6125839;23;20370;-86
2023/12/25 04:36:10;;;;;;;13.55;11.85;;;;;;;10.99;100.00;100610.72;6125966;23;19998;-88
2023/12/25 04:38:36;;;;;;;14.45;12.93;;;;;;;10.77;100.00;100581.19;6125384;23;20052;-82
2023/12/25 04:41:02;;;;;;;15.10;12.93;;;;;;;10.91;100.00;100603.47;6125813;23;20084;-81
2023/12/25 04:43:27;;;;;;;15.80;12.98;;;;;;;10.76;100.00;100589.03;6126089;23;20002;-82
2023/12/25 04:45:53;;;;;;;15.10;13.13;;;;;;;10.92;100.00;100620.66;6125793;23;20006;-81
2023/12/25 04:48:18;;;;;;;14.80;12.40;;;;;;;10.87;100.00;100610.63;6125619;23;20086;-85
2023/12/25 04:50:44;;;;;;;14.15;12.65;;;;;;;10.73;100.00;100592.66;6099519;23;20037;-82
2023/12/25 04:53:09;;;;;;;14.27;12.15;;;;;;;10.82;100.00;100604.97;6125977;23;20001;-82
2023/12/25 04:55:35;;;;;;;15.10;12.63;;;;;;;10.63;100.00;100582.13;6099277;23;20084;-81
2023/12/25 04:58:00;;;;;;;12.55;10.90;;;;;;;10.65;100.00;100583.78;6125467;23;20047;-81
2023/12/25 05:00:25;;;;;;;13.18;11.68;;;;;;;10.75;100.00;100602.88;6125484;23;20091;-81
2023/12/25 05:02:50;;;;;;;12.95;11.15;;;;;;;10.55;100.00;100576.66;6126447;23;20035;-80
2023/12/25 05:05:16;;;;;;;12.60;11.05;;;;;;;10.59;100.00;100578.06;6127345;23;20021;-80
2023/12/25 05:07:41;;;;;;;14.63;11.82;;;;;;;10.72;100.00;100592.78;6127873;23;20064;-82
2023/12/25 05:10:07;;;;;;;14.60;11.18;;;;;;;10.56;100.00;100574.88;6127835;23;20340;-83
2023/12/25 05:12:32;;;;;;;12.55;10.25;;;;;;;10.58;100.00;100583.34;6127382;23;20256;-81
2023/12/25 05:14:58;;;;;;;12.27;10.25;;;;;;;10.70;100.00;100599.78;6127874;23;20376;-83
2023/12/25 05:17:24;;;;;;;9.73;8.48;;;;;;;10.70;100.00;100597.19;6127367;23;20010;-81
2023/12/25 05:19:49;;;;;;;9.40;8.48;;;;;;;10.71;100.00;100597.09;6127066;23;20057;-82
2023/12/25 05:22:15;;;;;;;7.82;6.75;;;;;;;10.70;100.00;100594.59;6127453;23;20006;-82
2023/12/25 05:24:40;;;;;;;7.78;6.35;;;;;;;10.72;100.00;100597.94;6127587;23;20006;-83
2023/12/25 05:27:05;;;;;;;7.00;5.45;;;;;;;10.46;100.00;100548.84;6101448;23;20050;-81
2023/12/25 05:29:31;;;;;;;6.45;5.45;;;;;;;10.70;100.00;100589.44;6127429;23;20006;-81
2023/12/25 05:31:57;;;;;;;6.70;5.63;;;;;;;10.36;100.00;100537.50;6127706;23;20002;-81
2023/12/25 05:34:23;;;;;;;8.55;6.50;;;;;;;10.62;100.00;100592.56;6127250;23;20002;-81
2023/12/25 05:36:48;;;;;;;8.60;7.30;;;;;;;10.51;100.00;100576.94;6126908;23;20398;-81
2023/12/25 05:39:14;;;;;;;9.82;7.72;;;;;;;10.57;100.00;100586.88;6127051;23;20010;-80
2023/12/25 05:41:41;;;;;;;8.20;7.30;;;;;;;10.55;100.00;100591.31;6127091;23;20012;-80
2023/12/25 05:44:06;;;;;;;8.52;6.97;;;;;;;10.52;100.00;100600.09;6127593;23;20002;-80
2023/12/25 05:46:32;;;;;;;8.18;7.13;;;;;;;10.50;100.00;100581.28;6127333;23;20420;-80
2023/12/25 05:48:57;;;;;;;8.30;6.82;;;;;;;10.51;100.00;100589.84;6127034;23;20006;-79
2023/12/25 05:51:22;;;;;;;8.60;7.20;;;;;;;10.43;100.00;100584.38;6126928;23;20002;-80
2023/12/25 05:53:48;;;;;;;7.72;6.65;;;;;;;10.24;100.00;100540.91;6127237;23;20032;-81
2023/12/25 05:56:13;;;;;;;7.22;6.20;;;;;;;10.48;100.00;100588.28;6127135;23;20006;-80
2023/12/25 05:58:38;;;;;;;8.48;7.00;;;;;;;10.22;100.00;100553.03;6126787;23;20477;-80
2023/12/25 06:01:06;;;;;;;7.53;6.10;;;;;;;10.48;100.00;100593.47;6126965;23;20010;-81
2023/12/25 06:03:31;;;;;;;7.97;6.22;;;;;;;10.46;100.00;100605.66;6127040;23;20024;-80
2023/12/25 06:05:58;;;;;;;9.88;6.05;;;;;;;10.47;100.00;100602.13;6126927;23;20440;-82
2023/12/25 06:08:24;;;;;;;6.60;5.47;;;;;;;10.29;100.00;100569.78;6127042;23;20006;-81
2023/12/25 06:10:49;;;;;;;8.15;5.78;;;;;;;10.48;100.00;100595.22;6127173;23;20013;-80
2023/12/25 06:13:14;;;;;;;7.88;5.80;;;;;;;10.49;100.00;100589.94;6126954;23;20013;-81
2023/12/25 06:15:40;;;;;;;8.70;6.82;;;;;;;10.48;100.00;100605.53;6126988;23;20006;-82
2023/12/25 06:18:05;;;;;;;7.60;5.95;;;;;;;10.48;100.00;100592.63;6127099;23;20030;-81
2023/12/25 06:20:30;;;;;;;7.78;6.40;;;;;;;10.34;100.00;100586.63;6126614;23;20454;-82
2023/12/25 06:22:56;;;;;;;8.45;6.78;;;;;;;10.47;100.00;100593.56;6100915;23;20104;-81
2023/12/25 06:25:21;;;;;;;8.55;6.95;;;;;;;10.47;100.00;100594.41;6126778;23;20077;-81
2023/12/25 06:27:47;;;;;;;7.75;6.53;;;;;;;10.47;100.00;100586.66;6126784;23;20005;-81
2023/12/25 06:30:13;;;;;;;8.48;6.57;;;;;;;10.47;100.00;100591.81;6126673;23;20082;-83
2023/12/25 06:32:40;;;;;;;7.97;6.47;;;;;;;10.43;100.00;100579.22;6126631;23;20009;-82
2023/12/25 06:35:06;;;;;;;7.70;6.22;;;;;;;10.51;100.00;100587.25;6126403;23;20002;-81
2023/12/25 06:37:31;;;;;;;7.93;6.78;;;;;;;10.26;100.00;100546.78;6126497;23;20158;-80
2023/12/25 06:39:57;;;;;;;9.18;7.20;;;;;;;10.51;100.00;100607.91;6126645;23;20037;-81
2023/12/25 06:42:23;;;;;;;8.07;6.93;;;;;;;10.40;100.00;100594.91;6100343;23;20037;-82
2023/12/25 06:44:48;;;;;;;8.13;7.18;;;;;;;10.53;100.00;100637.06;6100709;23;20033;-81
2023/12/25 06:47:13;;;;;;;6.72;2.70;;;;;;;10.38;100.00;100638.88;6126502;23;20014;-81
2023/12/25 06:49:38;;;;;;;3.13;1.20;;;;;;;10.11;100.00;100617.41;6126710;23;20006;-80
2023/12/25 06:52:04;;;;;;;4.93;1.20;;;;;;;10.10;100.00;100654.44;6126934;23;20002;-80
2023/12/25 06:54:29;;;;;;;3.42;1.10;;;;;;;9.98;100.00;100650.91;6126782;23;20010;-80
2023/12/25 06:56:54;;;;;;;4.82;1.10;;;;;;;9.91;100.00;100652.19;6127081;23;20009;-80
2023/12/25 06:59:20;;;;;;;4.05;1.20;;;;;;;9.76;100.00;100661.75;6126087;23;20014;-80
2023/12/25 07:01:45;;;;;;;3.30;0.80;;;;;;;9.60;100.00;100643.81;6126719;23;20052;-81
2023/12/25 07:04:11;;;;;;;3.33;0.90;;;;;;;9.55;100.00;100639.88;6126447;23;20451;-81
2023/12/25 07:06:40;;;;;;;4.35;0.90;;;;;;;9.56;100.00;100654.41;6124564;23;20006;-78
2023/12/25 07:09:05;;;;;;;3.78;0.80;;;;;;;9.54;100.00;100651.06;6127380;23;20006;-78
2023/12/25 07:11:31;;;;;;;2.90;0.70;;;;;;;9.50;100.00;100663.34;6126260;23;20075;-80
2023/12/25 07:13:57;;;;;;;2.97;0.65;;;;;;;9.23;100.00;100632.31;6126782;23;20009;-78
2023/12/25 07:16:23;;;;;;;2.25;1.00;;;;;;;9.45;100.00;100676.50;6126240;23;20042;-77
2023/12/25 07:18:51;;;;;;;2.08;1.33;;;;;;;9.44;100.00;100663.72;6126256;23;20013;-78
2023/12/25 07:21:17;;;;;;;2.25;0.80;;;;;;;9.22;100.00;100632.44;6099135;23;20014;-82
2023/12/25 07:23:42;;;;;;;2.55;0.70;;;;;;;9.45;100.00;100678.25;6126025;23;20488;-82
2023/12/25 07:26:07;;;;;;;2.75;0.80;;;;;;;9.43;100.00;100670.59;6125776;23;20056;-81
2023/12/25 07:28:33;;;;;;;2.75;1.08;;;;;;;9.42;100.00;100678.44;6126619;23;20212;-81
2023/12/25 07:31:00;;;;;;;2.30;0.98;;;;;;;9.42;100.00;100675.84;6099965;23;20424;-81
2023/12/25 07:33:25;;;;;;;2.60;0.82;;;;;;;9.22;100.00;100647.88;6126455;23;20012;-82
2023/12/25 07:35:51;;;;;;;3.20;0.80;;;;;;;9.40;100.00;100693.16;6126030;23;20073;-81
2023/12/25 07:38:16;;;;;;;2.28;0.70;;;;;;;9.37;100.00;100689.03;6126296;23;20438;-81
2023/12/25 07:40:42;;;;;;;1.10;0.63;;;;;;;9.37;100.00;100689.03;6124617;23;20068;-81
2023/12/25 07:43:10;;;;;;;2.30;1.13;;;;;;;9.36;100.00;100689.97;6126658;23;20009;-79
2023/12/25 07:45:38;;;;;;;1.45;0.70;;;;;;;9.04;100.00;100632.59;6126559;23;20006;-80
2023/12/25 07:48:03;;;;;;;1.02;0.80;;;;;;;9.32;100.00;100698.78;6101083;23;20321;-80
2023/12/25 07:50:29;;;;;;;1.27;0.75;;;;;;;9.28;100.00;100676.69;6125796;23;20010;-79
2023/12/25 07:52:54;;;;;;;1.33;0.70;;;;;;;9.34;100.00;100701.25;6126136;23;20033;-80
2023/12/25 07:55:19;;;;;;;1.88;0.90;;;;;;;9.33;100.00;100704.75;6125676;23;20073;-80
2023/12/25 07:57:45;;;;;;;0.60;0.60;;;;;;;9.16;100.00;100683.41;6125597;23;20037;-80
2023/12/25 08:00:11;;;;;;;2.35;0.70;;;;;;;9.34;100.00;100719.28;6125956;23;20066;-77
2023/12/25 08:02:36;;;;;;;1.27;0.57;;;;;;;9.35;100.00;100726.13;6126005;23;20002;-80
2023/12/25 08:05:02;;;;;;;2.20;0.77;;;;;;;9.39;100.00;100725.00;6125795;23;20013;-79
2023/12/25 08:07:28;;;;;;;0.63;0.50;;;;;;;9.29;100.00;100698.97;6125698;23;20006;-81
2023/12/25 08:09:54;;;;;;;2.55;0.68;;;;;;;8.91;100.00;100652.28;6126146;23;20069;-77
2023/12/25 08:12:20;;;;;;;1.10;0.50;;;;;;;9.24;100.00;100706.13;6100301;23;20400;-78
2023/12/25 08:14:45;;;;;;;1.45;0.70;;;;;;;9.35;100.00;100724.38;6126096;23;20006;-79
2023/12/25 08:17:11;;;;;;;2.97;1.10;;;;;;;9.34;100.00;100733.03;6125968;23;20041;-79
2023/12/25 08:19:36;;;;;;;2.22;0.80;;;;;;;9.34;100.00;100725.31;6126016;23;20005;-78
2023/12/25 08:22:02;;;;;;;1.52;0.75;;;;;;;9.11;100.00;100697.47;6125395;23;20006;-80
2023/12/25 08:24:28;;;;;;;1.55;0.80;;;;;;;9.35;100.00;100737.25;6125321;23;20009;-79
2023/12/25 08:26:53;;;;;;;1.83;0.80;;;;;;;9.34;100.00;100727.03;6125819;23;20006;-82
2023/12/25 08:29:19;;;;;;;2.67;0.73;;;;;;;9.33;100.00;100728.78;6125881;23;20010;-80
2023/12/25 08:31:44;;;;;;;3.20;0.93;;;;;;;9.23;100.00;100726.84;6126081;23;20017;-80
2023/12/25 08:34:10;;;;;;;2.88;0.80;;;;;;;9.26;100.00;100735.22;6125737;23;20002;-80
2023/12/25 08:36:35;;;;;;;5.53;1.00;;;;;;;9.36;100.00;100732.94;6125458;23;20372;-79
2023/12/25 08:39:00;;;;;;;2.97;0.93;;;;;;;9.36;100.00;100731.19;6126007;23;20002;-81
2023/12/25 08:41:26;;;;;;;2.15;0.82;;;;;;;9.23;100.00;100712.19;6125094;23;20318;-79
2023/12/25 08:43:51;;;;;;;1.23;0.88;;;;;;;9.36;100.00;100736.34;6075552;23;20014;-81
2023/12/25 08:46:17;;;;;;;2.85;1.00;;;;;;;9.31;100.00;100730.63;6125200;23;20002;-82
2023/12/25 08:48:43;;;;;;;2.85;0.75;;;;;;;9.36;100.00;100756.97;6125670;23;20032;-80
2023/12/25 08:51:08;;;;;;;4.15;0.80;;;;;;;9.38;100.00;100760.28;6125439;23;20017;-82
2023/12/25 08:53:33;;;;;;;1.98;0.95;;;;;;;9.24;100.00;100731.88;6124600;23;20006;-82
2023/12/25 08:56:01;;;;;;;1.48;0.80;;;;;;;9.14;100.00;100718.75;6126234;23;20002;-83
2023/12/25 08:58:26;;;;;;;1.08;0.60;;;;;;;9.37;100.00;100752.63;6125487;23;20089;-79
2023/12/25 09:00:52;;;;;;;1.40;0.80;;;;;;;9.06;100.00;100681.47;6125052;23;20499;-83
2023/12/25 09:03:17;;;;;;;1.33;0.60;;;;;;;9.36;100.00;100732.94;6125111;23;20006;-80
2023/12/25 09:05:43;;;;;;;1.85;0.90;;;;;;;9.34;100.00;100727.88;6123483;23;20328;-84
2023/12/25 09:08:08;;;;;;;2.28;0.80;;;;;;;9.44;100.00;100743.63;6125257;23;20381;-80
2023/12/25 09:10:34;;;;;;;1.60;0.77;;;;;;;9.46;100.00;100752.91;6125472;23;20016;-80
2023/12/25 09:12:59;;;;;;;1.70;0.70;;;;;;;9.41;100.00;100749.78;6125337;23;20405;-84
2023/12/25 09:15:25;;;;;;;1.98;0.75;;;;;;;9.51;100.00;100777.56;6125522;23;20002;-75
2023/12/25 09:17:50;;;;;;;2.17;0.93;;;;;;;9.15;100.00;100727.31;6125207;23;20037;-76
2023/12/25 09:20:16;;;;;;;2.63;0.70;;;;;;;9.46;100.00;100783.84;6125504;23;20002;-78
2023/12/25 09:22:42;;;;;;;3.40;0.93;;;;;;;9.30;100.00;100762.47;6125084;23;20332;-79
2023/12/25 09:25:07;;;;;;;1.98;0.90;;;;;;;9.33;100.00;100771.75;6125452;23;20034;-80
2023/12/25 09:27:33;;;;;;;1.95;0.93;;;;;;;9.45;100.00;100799.41;6125236;23;20006;-79
2023/12/25 09:29:58;;;;;;;1.15;0.70;;;;;;;9.45;100.00;100807.13;6125299;23;20009;-82
2023/12/25 09:32:23;;;;;;;1.67;0.77;;;;;;;9.49;100.00;100808.59;6125005;23;20006;-78
2023/12/25 09:34:49;;;;;;;1.90;0.90;;;;;;;9.46;100.00;100806.22;6125390;23;20005;-78
2023/12/25 09:37:14;;;;;;;1.95;0.90;;;;;;;9.50;100.00;100820.56;6125345;23;20025;-79
2023/12/25 09:39:43;;;;;;;3.65;0.80;;;;;;;9.44;100.00;100808.88;6125325;23;20088;-81
2023/12/25 09:42:10;;;;;;;0.95;0.70;;;;;;;9.49;100.00;100818.91;6125121;23;20459;-76
2023/12/25 09:44:37;;;;;;;1.25;0.80;;;;;;;9.52;100.00;100813.56;6125096;23;20060;-77
2023/12/25 09:47:06;;;;;;;1.58;0.80;;;;;;;9.54;100.00;100805.75;6125068;23;20496;-75
2023/12/25 09:49:35;;;;;;;1.10;0.70;;;;;;;9.38;100.00;100770.56;6126751;23;20012;-75
2023/12/25 09:52:02;;;;;;;2.13;0.90;;;;;;;9.54;100.00;100795.44;6126943;23;20069;-75
2023/12/25 09:54:28;;;;;;;1.00;0.70;;;;;;;9.55;100.00;100797.13;6126848;23;20013;-75
2023/12/25 09:56:55;;;;;;;1.15;0.60;;;;;;;9.43;100.00;100772.88;6126713;23;20014;-75
2023/12/25 09:59:21;;;;;;;2.30;1.00;;;;;;;9.54;100.00;100803.16;6126589;23;20063;-74
2023/12/25 10:01:48;;;;;;;1.83;0.90;;;;;;;9.50;100.00;100802.53;6126769;23;20010;-75
2023/12/25 10:04:14;;;;;;;2.75;0.90;;;;;;;9.51;100.00;100791.28;6127219;23;20006;-76
2023/12/25 10:06:42;;;;;;;2.80;0.95;;;;;;;9.38;100.00;100775.72;6126682;23;20505;-77
2023/12/25 10:09:07;;;;;;;2.17;0.88;;;;;;;9.57;100.00;100796.09;6101409;23;20006;-78
2023/12/25 10:11:33;;;;;;;1.75;1.00;;;;;;;9.56;100.00;100809.09;6126799;23;20077;-73
2023/12/25 10:13:58;;;;;;;3.28;0.77;;;;;;;9.55;100.00;100812.59;6126820;23;20009;-75
2023/12/25 10:16:24;;;;;;;1.95;0.80;;;;;;;9.52;100.00;100823.06;6126761;23;20029;-76
2023/12/25 10:18:49;;;;;;;2.03;0.70;;;;;;;9.45;100.00;100813.13;6126845;23;20009;-75
2023/12/25 10:21:15;;;;;;;2.70;1.10;;;;;;;9.53;100.00;100822.13;6126725;23;20089;-78
2023/12/25 10:23:41;;;;;;;2.22;1.10;;;;;;;9.42;100.00;100807.31;6126502;23;20005;-77
2023/12/25 10:26:07;;;;;;;2.03;1.13;;;;;;;9.46;100.00;100816.53;6126959;23;20017;-75
2023/12/25 10:28:36;;;;;;;3.35;1.10;;;;;;;9.34;100.00;100794.03;6126808;23;20006;-78
2023/12/25 10:31:03;;;;;;;3.45;1.10;;;;;;;9.47;100.00;100805.28;6126913;23;20321;-76
2023/12/25 10:33:30;;;;;;;4.93;1.10;;;;;;;9.44;100.00;100824.34;6126863;23;20029;-75
2023/12/25 10:36:07;;;;;;;2.85;1.20;;;;;;;9.27;100.00;100796.16;6126762;23;20002;-75
2023/12/25 10:38:34;;;;;;;3.35;1.10;;;;;;;9.40;100.00;100830.59;6127053;23;20025;-74
2023/12/25 10:41:28;;;;;;;4.13;1.20;;;;;;;9.36;100.00;100826.53;6126950;23;20006;-73
2023/12/25 10:43:58;;;;;;;3.10;1.70;;;;;;;9.33;100.00;100818.13;6126620;23;20013;-72
2023/12/25 10:46:41;;;;;;;2.83;1.10;;;;;;;9.27;100.00;100821.09;6126712;23;20002;-78
2023/12/25 10:49:08;;;;;;;2.72;1.27;;;;;;;9.30;100.00;100819.16;6126575;23;20081;-79
2023/12/25 10:51:40;;;;;;;4.28;1.13;;;;;;;9.26;100.00;100817.69;6101249;23;20033;-77
2023/12/25 10:54:10;;;;;;;4.85;1.33;;;;;;;9.25;100.00;100823.75;6126457;23;20009;-77
2023/12/25 10:56:37;;;;;;;2.92;1.25;;;;;;;9.22;100.00;100805.06;6126683;23;20005;-75
2023/12/25 10:59:10;;;;;;;3.20;0.98;;;;;;;9.11;100.00;100783.31;6126250;23;20009;-80
2023/12/25 11:01:37;;;;;;;2.75;1.27;;;;;;;9.35;100.00;100816.31;6126186;23;20084;-78
2023/12/25 11:04:03;;;;;;;2.95;1.38;;;;;;;9.39;100.00;100807.50;6126647;23;20085;-75
2023/12/25 11:06:28;;;;;;;4.55;1.30;;;;;;;9.39;100.00;100815.22;6126493;23;20436;-81
2023/12/25 11:08:54;;;;;;;3.38;1.20;;;;;;;9.42;100.00;100817.59;6126545;23;20039;-75
2023/12/25 11:11:20;;;;;;;7.95;1.85;;;;;;;9.42;100.00;100825.34;6126338;23;20076;-76
2023/12/25 11:13:46;;;;;;;3.53;1.20;;;;;;;9.38;100.00;100823.88;6126687;23;20009;-80